sensor_id;sensor_type;location;lat;lon;timestamp;temperature;humidity
44359;DHT22;30077;52.474;13.326;2023-07-28T00:01:23;17.00;99.90
44359;DHT22;30077;52.474;13.326;2023-07-28T00:06:24;17.00;99.90
44359;DHT22;30077;52.474;13.326;2023-07-28T00:11:24;17.10;99.90
44359;DHT22;30077;52.474;13.326;2023-07-28T00:16:25;17.00;99.90
44359;DHT22;30077;52.474;13.326;2023-07-28T00:21:26;17.00;99.90
44359;DHT22;30077;52.474;13.326;2023-07-28T00:26:27;17.00;99.90
44359;DHT22;30077;52.474;13.326;2023-07-28T00:31:28;17.00;99.90
44359;DHT22;30077;52.474;13.326;2023-07-28T00:36:29;17.00;99.90
44359;DHT22;30077;52.474;13.326;2023-07-28T00:41:30;17.00;99.90
44359;DHT22;30077;52.474;13.326;2023-07-28T00:46:31;17.00;99.90
44359;DHT22;30077;52.474;13.326;2023-07-28T00:51:32;17.00;99.90
44359;DHT22;30077;52.474;13.326;2023-07-28T00:56:32;17.10;99.90
44359;DHT22;30077;52.474;13.326;2023-07-28T01:01:33;17.10;99.90
44359;DHT22;30077;52.474;13.326;2023-07-28T01:06:52;17.10;99.90
44359;DHT22;30077;52.474;13.326;2023-07-28T01:11:58;17.10;99.90
44359;DHT22;30077;52.474;13.326;2023-07-28T01:16:58;17.10;99.90
44359;DHT22;30077;52.474;13.326;2023-07-28T01:27:51;17.10;99.90
44359;DHT22;30077;52.474;13.326;2023-07-28T01:32:54;17.10;99.90
44359;DHT22;30077;52.474;13.326;2023-07-28T01:37:56;17.10;99.90
44359;DHT22;30077;52.474;13.326;2023-07-28T01:42:56;17.20;99.90
44359;DHT22;30077;52.474;13.326;2023-07-28T01:47:57;17.20;99.90
44359;DHT22;30077;52.474;13.326;2023-07-28T01:52:58;17.20;99.90
44359;DHT22;30077;52.474;13.326;2023-07-28T01:58:00;17.20;99.90
44359;DHT22;30077;52.474;13.326;2023-07-28T02:03:01;17.20;99.90
44359;DHT22;30077;52.474;13.326;2023-07-28T02:08:03;17.20;99.90
44359;DHT22;30077;52.474;13.326;2023-07-28T02:13:04;17.20;99.90
44359;DHT22;30077;52.474;13.326;2023-07-28T02:18:05;17.20;99.90
44359;DHT22;30077;52.474;13.326;2023-07-28T02:23:05;17.20;99.90
44359;DHT22;30077;52.474;13.326;2023-07-28T02:28:09;17.20;99.90
44359;DHT22;30077;52.474;13.326;2023-07-28T02:33:10;17.30;99.90
44359;DHT22;30077;52.474;13.326;2023-07-28T02:38:11;17.20;99.90
44359;DHT22;30077;52.474;13.326;2023-07-28T02:43:11;17.20;99.90
44359;DHT22;30077;52.474;13.326;2023-07-28T02:48:12;17.30;99.90
44359;DHT22;30077;52.474;13.326;2023-07-28T02:53:13;17.30;99.90
44359;DHT22;30077;52.474;13.326;2023-07-28T02:58:15;17.30;99.90
44359;DHT22;30077;52.474;13.326;2023-07-28T03:03:16;17.30;99.90
44359;DHT22;30077;52.474;13.326;2023-07-28T03:08:16;17.30;99.90
44359;DHT22;30077;52.474;13.326;2023-07-28T03:13:17;17.30;99.90
44359;DHT22;30077;52.474;13.326;2023-07-28T03:18:18;17.30;99.90
44359;DHT22;30077;52.474;13.326;2023-07-28T03:23:18;17.30;99.90
44359;DHT22;30077;52.474;13.326;2023-07-28T03:28:19;17.30;99.90
44359;DHT22;30077;52.474;13.326;2023-07-28T03:33:19;17.30;99.90
44359;DHT22;30077;52.474;13.326;2023-07-28T03:38:20;17.20;99.90
44359;DHT22;30077;52.474;13.326;2023-07-28T03:43:21;17.20;99.90
44359;DHT22;30077;52.474;13.326;2023-07-28T03:48:22;17.30;99.90
44359;DHT22;30077;52.474;13.326;2023-07-28T03:53:22;17.30;99.90
44359;DHT22;30077;52.474;13.326;2023-07-28T03:58:26;17.40;99.90
44359;DHT22;30077;52.474;13.326;2023-07-28T04:03:27;17.30;99.90
44359;DHT22;30077;52.474;13.326;2023-07-28T04:08:27;17.40;99.90
44359;DHT22;30077;52.474;13.326;2023-07-28T04:13:28;17.50;99.90
44359;DHT22;30077;52.474;13.326;2023-07-28T04:18:29;17.40;99.90
44359;DHT22;30077;52.474;13.326;2023-07-28T04:23:30;17.50;99.90
44359;DHT22;30077;52.474;13.326;2023-07-28T04:28:30;17.50;99.90
44359;DHT22;30077;52.474;13.326;2023-07-28T04:33:32;17.60;99.90
44359;DHT22;30077;52.474;13.326;2023-07-28T04:38:32;17.70;99.90
44359;DHT22;30077;52.474;13.326;2023-07-28T04:43:33;17.70;99.90
44359;DHT22;30077;52.474;13.326;2023-07-28T04:48:34;17.70;99.90
44359;DHT22;30077;52.474;13.326;2023-07-28T04:53:35;17.70;99.90
44359;DHT22;30077;52.474;13.326;2023-07-28T04:58:35;17.60;99.90
44359;DHT22;30077;52.474;13.326;2023-07-28T05:03:36;17.70;99.90
44359;DHT22;30077;52.474;13.326;2023-07-28T05:08:37;17.70;99.90
44359;DHT22;30077;52.474;13.326;2023-07-28T05:13:37;17.70;99.90
44359;DHT22;30077;52.474;13.326;2023-07-28T05:18:38;17.70;99.90
44359;DHT22;30077;52.474;13.326;2023-07-28T05:23:39;17.80;99.90
44359;DHT22;30077;52.474;13.326;2023-07-28T05:28:40;17.90;99.90
44359;DHT22;30077;52.474;13.326;2023-07-28T05:33:40;17.90;99.90
44359;DHT22;30077;52.474;13.326;2023-07-28T05:38:41;18.00;99.90
44359;DHT22;30077;52.474;13.326;2023-07-28T05:43:42;18.10;99.90
44359;DHT22;30077;52.474;13.326;2023-07-28T05:48:42;18.10;99.90
44359;DHT22;30077;52.474;13.326;2023-07-28T05:53:43;18.20;99.90
44359;DHT22;30077;52.474;13.326;2023-07-28T05:58:46;18.30;99.90
44359;DHT22;30077;52.474;13.326;2023-07-28T06:03:47;18.40;99.90
44359;DHT22;30077;52.474;13.326;2023-07-28T06:08:48;18.50;99.90
44359;DHT22;30077;52.474;13.326;2023-07-28T06:13:48;18.40;99.90
44359;DHT22;30077;52.474;13.326;2023-07-28T06:18:49;18.40;99.90
44359;DHT22;30077;52.474;13.326;2023-07-28T06:23:50;18.30;99.90
44359;DHT22;30077;52.474;13.326;2023-07-28T06:28:51;18.50;99.90
44359;DHT22;30077;52.474;13.326;2023-07-28T06:33:51;18.60;99.90
44359;DHT22;30077;52.474;13.326;2023-07-28T06:38:52;18.90;99.90
44359;DHT22;30077;52.474;13.326;2023-07-28T06:43:55;18.90;99.90
44359;DHT22;30077;52.474;13.326;2023-07-28T06:48:56;19.00;99.90
44359;DHT22;30077;52.474;13.326;2023-07-28T06:53:56;19.10;99.90
44359;DHT22;30077;52.474;13.326;2023-07-28T06:58:57;19.10;99.90
44359;DHT22;30077;52.474;13.326;2023-07-28T07:03:58;19.20;99.90
44359;DHT22;30077;52.474;13.326;2023-07-28T07:08:58;19.40;99.90
44359;DHT22;30077;52.474;13.326;2023-07-28T07:13:59;19.50;99.90
44359;DHT22;30077;52.474;13.326;2023-07-28T07:19:00;19.70;99.90
44359;DHT22;30077;52.474;13.326;2023-07-28T07:24:02;19.80;99.90
44359;DHT22;30077;52.474;13.326;2023-07-28T07:29:04;20.00;99.90
44359;DHT22;30077;52.474;13.326;2023-07-28T07:34:05;20.50;99.90
44359;DHT22;30077;52.474;13.326;2023-07-28T07:39:06;20.70;99.90
44359;DHT22;30077;52.474;13.326;2023-07-28T07:44:06;21.00;99.90
44359;DHT22;30077;52.474;13.326;2023-07-28T07:49:07;21.30;99.90
44359;DHT22;30077;52.474;13.326;2023-07-28T07:54:08;21.30;99.90
44359;DHT22;30077;52.474;13.326;2023-07-28T07:59:08;21.60;99.90
44359;DHT22;30077;52.474;13.326;2023-07-28T08:04:09;21.70;99.90
44359;DHT22;30077;52.474;13.326;2023-07-28T08:09:11;21.90;99.90
44359;DHT22;30077;52.474;13.326;2023-07-28T08:14:13;21.80;99.90
44359;DHT22;30077;52.474;13.326;2023-07-28T08:19:14;21.60;99.90
44359;DHT22;30077;52.474;13.326;2023-07-28T08:24:14;22.10;99.90
44359;DHT22;30077;52.474;13.326;2023-07-28T08:29:16;22.00;99.90
44359;DHT22;30077;52.474;13.326;2023-07-28T08:34:16;21.80;99.90
44359;DHT22;30077;52.474;13.326;2023-07-28T08:39:18;21.90;99.90
44359;DHT22;30077;52.474;13.326;2023-07-28T08:44:19;22.20;99.90
44359;DHT22;30077;52.474;13.326;2023-07-28T08:49:19;22.60;99.90
44359;DHT22;30077;52.474;13.326;2023-07-28T08:54:21;22.70;99.90
44359;DHT22;30077;52.474;13.326;2023-07-28T08:59:26;22.10;99.90
44359;DHT22;30077;52.474;13.326;2023-07-28T09:04:28;21.80;99.90
44359;DHT22;30077;52.474;13.326;2023-07-28T09:09:32;21.60;99.90
44359;DHT22;30077;52.474;13.326;2023-07-28T09:14:35;22.10;99.90
44359;DHT22;30077;52.474;13.326;2023-07-28T09:19:52;22.50;99.90
44359;DHT22;30077;52.474;13.326;2023-07-28T09:24:54;22.20;99.90
44359;DHT22;30077;52.474;13.326;2023-07-28T09:29:55;22.00;99.90
44359;DHT22;30077;52.474;13.326;2023-07-28T09:35:08;21.80;99.90
44359;DHT22;30077;52.474;13.326;2023-07-28T09:40:15;22.30;99.90
44359;DHT22;30077;52.474;13.326;2023-07-28T09:45:21;22.60;99.90
44359;DHT22;30077;52.474;13.326;2023-07-28T09:50:23;23.10;99.90
44359;DHT22;30077;52.474;13.326;2023-07-28T09:55:24;23.00;99.90
44359;DHT22;30077;52.474;13.326;2023-07-28T10:00:25;23.20;99.90
44359;DHT22;30077;52.474;13.326;2023-07-28T10:05:26;23.40;99.90
44359;DHT22;30077;52.474;13.326;2023-07-28T10:10:27;23.70;99.90
44359;DHT22;30077;52.474;13.326;2023-07-28T10:15:31;23.90;99.90
44359;DHT22;30077;52.474;13.326;2023-07-28T10:20:37;24.10;99.90
44359;DHT22;30077;52.474;13.326;2023-07-28T10:25:40;24.30;99.90
44359;DHT22;30077;52.474;13.326;2023-07-28T10:30:54;23.90;99.90
44359;DHT22;30077;52.474;13.326;2023-07-28T10:35:55;23.30;99.90
44359;DHT22;30077;52.474;13.326;2023-07-28T10:41:09;22.80;99.90
44359;DHT22;30077;52.474;13.326;2023-07-28T10:46:15;23.20;99.90
44359;DHT22;30077;52.474;13.326;2023-07-28T10:51:25;23.60;99.90
44359;DHT22;30077;52.474;13.326;2023-07-28T10:56:28;24.40;99.90
44359;DHT22;30077;52.474;13.326;2023-07-28T11:01:37;25.00;99.90
44359;DHT22;30077;52.474;13.326;2023-07-28T11:06:47;25.20;99.90
44359;DHT22;30077;52.474;13.326;2023-07-28T11:11:51;25.10;99.90
44359;DHT22;30077;52.474;13.326;2023-07-28T11:16:52;24.60;99.90
44359;DHT22;30077;52.474;13.326;2023-07-28T11:21:54;24.40;99.90
44359;DHT22;30077;52.474;13.326;2023-07-28T11:26:57;23.50;99.90
44359;DHT22;30077;52.474;13.326;2023-07-28T11:31:59;21.80;99.90
44359;DHT22;30077;52.474;13.326;2023-07-28T11:37:00;20.30;99.90
44359;DHT22;30077;52.474;13.326;2023-07-28T11:42:01;20.20;99.90
44359;DHT22;30077;52.474;13.326;2023-07-28T11:47:05;20.50;99.90
44359;DHT22;30077;52.474;13.326;2023-07-28T11:52:07;20.90;99.90
44359;DHT22;30077;52.474;13.326;2023-07-28T11:57:08;20.70;99.90
44359;DHT22;30077;52.474;13.326;2023-07-28T12:02:10;21.10;99.90
44359;DHT22;30077;52.474;13.326;2023-07-28T12:07:13;21.40;99.90
44359;DHT22;30077;52.474;13.326;2023-07-28T12:12:17;21.00;99.90
44359;DHT22;30077;52.474;13.326;2023-07-28T12:17:21;21.00;99.90
44359;DHT22;30077;52.474;13.326;2023-07-28T12:22:23;21.00;99.90
44359;DHT22;30077;52.474;13.326;2023-07-28T12:27:24;21.20;99.90
44359;DHT22;30077;52.474;13.326;2023-07-28T12:32:27;20.90;99.90
44359;DHT22;30077;52.474;13.326;2023-07-28T12:37:27;20.80;99.90
44359;DHT22;30077;52.474;13.326;2023-07-28T12:42:28;20.90;99.90
44359;DHT22;30077;52.474;13.326;2023-07-28T12:47:29;21.30;99.90
44359;DHT22;30077;52.474;13.326;2023-07-28T12:52:30;21.10;99.90
44359;DHT22;30077;52.474;13.326;2023-07-28T12:57:32;21.50;99.90
44359;DHT22;30077;52.474;13.326;2023-07-28T13:02:33;21.90;99.90
44359;DHT22;30077;52.474;13.326;2023-07-28T13:07:34;22.00;99.90
44359;DHT22;30077;52.474;13.326;2023-07-28T13:12:35;22.50;99.90
44359;DHT22;30077;52.474;13.326;2023-07-28T13:17:35;22.40;99.90
44359;DHT22;30077;52.474;13.326;2023-07-28T13:22:36;22.50;99.90
44359;DHT22;30077;52.474;13.326;2023-07-28T13:27:37;22.70;99.90
44359;DHT22;30077;52.474;13.326;2023-07-28T13:32:38;22.50;99.90
44359;DHT22;30077;52.474;13.326;2023-07-28T13:37:39;22.10;99.90
44359;DHT22;30077;52.474;13.326;2023-07-28T13:42:40;22.00;99.90
44359;DHT22;30077;52.474;13.326;2023-07-28T13:47:40;22.20;99.90
44359;DHT22;30077;52.474;13.326;2023-07-28T13:52:42;22.60;99.90
44359;DHT22;30077;52.474;13.326;2023-07-28T13:57:43;23.00;99.90
44359;DHT22;30077;52.474;13.326;2023-07-28T14:02:43;23.00;99.90
44359;DHT22;30077;52.474;13.326;2023-07-28T14:07:44;23.00;99.90
44359;DHT22;30077;52.474;13.326;2023-07-28T14:12:46;23.20;99.90
44359;DHT22;30077;52.474;13.326;2023-07-28T14:17:47;23.20;99.90
44359;DHT22;30077;52.474;13.326;2023-07-28T14:22:47;23.60;99.90
44359;DHT22;30077;52.474;13.326;2023-07-28T14:27:48;23.80;99.90
44359;DHT22;30077;52.474;13.326;2023-07-28T14:32:49;23.90;99.90
44359;DHT22;30077;52.474;13.326;2023-07-28T14:37:50;23.70;99.90
44359;DHT22;30077;52.474;13.326;2023-07-28T14:42:51;23.40;99.90
44359;DHT22;30077;52.474;13.326;2023-07-28T14:47:52;23.60;99.90
44359;DHT22;30077;52.474;13.326;2023-07-28T14:52:53;23.60;99.90
44359;DHT22;30077;52.474;13.326;2023-07-28T14:57:54;23.40;99.90
44359;DHT22;30077;52.474;13.326;2023-07-28T15:02:54;23.10;99.90
44359;DHT22;30077;52.474;13.326;2023-07-28T15:07:55;23.10;99.90
44359;DHT22;30077;52.474;13.326;2023-07-28T15:12:56;23.40;99.90
44359;DHT22;30077;52.474;13.326;2023-07-28T15:17:57;23.80;99.90
44359;DHT22;30077;52.474;13.326;2023-07-28T15:22:58;24.00;99.90
44359;DHT22;30077;52.474;13.326;2023-07-28T15:27:59;24.30;99.90
44359;DHT22;30077;52.474;13.326;2023-07-28T15:33:00;24.20;99.90
44359;DHT22;30077;52.474;13.326;2023-07-28T15:38:00;23.90;99.90
44359;DHT22;30077;52.474;13.326;2023-07-28T15:43:01;23.70;99.90
44359;DHT22;30077;52.474;13.326;2023-07-28T15:48:02;23.50;99.90
44359;DHT22;30077;52.474;13.326;2023-07-28T15:53:03;23.30;99.90
44359;DHT22;30077;52.474;13.326;2023-07-28T15:58:03;23.20;99.90
44359;DHT22;30077;52.474;13.326;2023-07-28T16:03:04;23.00;99.90
44359;DHT22;30077;52.474;13.326;2023-07-28T16:08:08;23.00;99.90
44359;DHT22;30077;52.474;13.326;2023-07-28T16:13:09;23.20;99.90
44359;DHT22;30077;52.474;13.326;2023-07-28T16:18:09;23.10;99.90
44359;DHT22;30077;52.474;13.326;2023-07-28T16:23:11;23.20;99.90
44359;DHT22;30077;52.474;13.326;2023-07-28T16:28:11;23.00;99.90
44359;DHT22;30077;52.474;13.326;2023-07-28T16:33:12;22.80;99.90
44359;DHT22;30077;52.474;13.326;2023-07-28T16:38:13;22.60;99.90
44359;DHT22;30077;52.474;13.326;2023-07-28T16:43:14;22.90;99.90
44359;DHT22;30077;52.474;13.326;2023-07-28T16:48:15;22.80;99.90
44359;DHT22;30077;52.474;13.326;2023-07-28T16:53:15;22.70;99.90
44359;DHT22;30077;52.474;13.326;2023-07-28T16:58:16;22.70;99.90
44359;DHT22;30077;52.474;13.326;2023-07-28T17:03:18;22.80;99.90
44359;DHT22;30077;52.474;13.326;2023-07-28T17:08:19;22.70;99.90
44359;DHT22;30077;52.474;13.326;2023-07-28T17:13:19;22.80;99.90
44359;DHT22;30077;52.474;13.326;2023-07-28T17:18:21;22.80;99.90
44359;DHT22;30077;52.474;13.326;2023-07-28T17:23:22;22.70;99.90
44359;DHT22;30077;52.474;13.326;2023-07-28T17:28:23;22.60;99.90
44359;DHT22;30077;52.474;13.326;2023-07-28T17:33:24;22.40;99.90
44359;DHT22;30077;52.474;13.326;2023-07-28T17:38:24;22.40;99.90
44359;DHT22;30077;52.474;13.326;2023-07-28T17:43:25;22.40;99.90
44359;DHT22;30077;52.474;13.326;2023-07-28T17:48:26;22.50;99.90
44359;DHT22;30077;52.474;13.326;2023-07-28T17:53:27;22.50;99.90
44359;DHT22;30077;52.474;13.326;2023-07-28T17:58:29;22.40;99.90
44359;DHT22;30077;52.474;13.326;2023-07-28T18:03:29;22.30;99.90
44359;DHT22;30077;52.474;13.326;2023-07-28T18:08:30;22.30;99.90
44359;DHT22;30077;52.474;13.326;2023-07-28T18:13:31;22.10;99.90
44359;DHT22;30077;52.474;13.326;2023-07-28T18:18:31;22.00;99.90
44359;DHT22;30077;52.474;13.326;2023-07-28T18:23:32;21.80;99.90
44359;DHT22;30077;52.474;13.326;2023-07-28T18:28:33;21.60;99.90
44359;DHT22;30077;52.474;13.326;2023-07-28T18:33:33;21.40;99.90
44359;DHT22;30077;52.474;13.326;2023-07-28T18:38:34;21.30;99.90
44359;DHT22;30077;52.474;13.326;2023-07-28T18:43:35;21.10;99.90
44359;DHT22;30077;52.474;13.326;2023-07-28T18:48:36;20.90;99.90
44359;DHT22;30077;52.474;13.326;2023-07-28T18:53:36;20.70;99.90
44359;DHT22;30077;52.474;13.326;2023-07-28T18:58:37;20.60;99.90
44359;DHT22;30077;52.474;13.326;2023-07-28T19:03:41;20.40;99.90
44359;DHT22;30077;52.474;13.326;2023-07-28T19:08:42;20.30;99.90
44359;DHT22;30077;52.474;13.326;2023-07-28T19:13:43;20.20;99.90
44359;DHT22;30077;52.474;13.326;2023-07-28T19:18:44;20.00;99.90
44359;DHT22;30077;52.474;13.326;2023-07-28T19:23:45;19.90;99.90
44359;DHT22;30077;52.474;13.326;2023-07-28T19:28:45;19.80;99.90
44359;DHT22;30077;52.474;13.326;2023-07-28T19:33:46;19.70;99.90
44359;DHT22;30077;52.474;13.326;2023-07-28T19:38:47;19.60;99.90
44359;DHT22;30077;52.474;13.326;2023-07-28T19:43:48;19.50;99.90
44359;DHT22;30077;52.474;13.326;2023-07-28T19:48:49;19.40;99.90
44359;DHT22;30077;52.474;13.326;2023-07-28T19:53:49;19.30;99.90
44359;DHT22;30077;52.474;13.326;2023-07-28T19:58:53;19.20;99.90
44359;DHT22;30077;52.474;13.326;2023-07-28T20:03:54;19.20;99.90
44359;DHT22;30077;52.474;13.326;2023-07-28T20:08:55;19.20;99.90
44359;DHT22;30077;52.474;13.326;2023-07-28T20:13:56;19.10;99.90
44359;DHT22;30077;52.474;13.326;2023-07-28T20:18:56;19.10;99.90
44359;DHT22;30077;52.474;13.326;2023-07-28T20:23:57;19.10;99.90
44359;DHT22;30077;52.474;13.326;2023-07-28T20:28:57;19.00;99.90
44359;DHT22;30077;52.474;13.326;2023-07-28T20:33:58;19.10;99.90
44359;DHT22;30077;52.474;13.326;2023-07-28T20:38:59;19.20;99.90
44359;DHT22;30077;52.474;13.326;2023-07-28T20:44:00;19.20;99.90
44359;DHT22;30077;52.474;13.326;2023-07-28T20:49:00;19.20;99.90
44359;DHT22;30077;52.474;13.326;2023-07-28T20:54:04;19.30;99.90
44359;DHT22;30077;52.474;13.326;2023-07-28T20:59:05;19.40;99.90
44359;DHT22;30077;52.474;13.326;2023-07-28T21:04:05;19.40;99.90
44359;DHT22;30077;52.474;13.326;2023-07-28T21:09:06;19.40;99.90
44359;DHT22;30077;52.474;13.326;2023-07-28T21:14:07;19.40;99.90
44359;DHT22;30077;52.474;13.326;2023-07-28T21:19:07;19.40;99.90
44359;DHT22;30077;52.474;13.326;2023-07-28T21:24:08;19.40;99.90
44359;DHT22;30077;52.474;13.326;2023-07-28T21:29:09;19.40;99.90
44359;DHT22;30077;52.474;13.326;2023-07-28T21:34:10;19.40;99.90
44359;DHT22;30077;52.474;13.326;2023-07-28T21:39:13;19.50;99.90
44359;DHT22;30077;52.474;13.326;2023-07-28T21:44:14;19.40;99.90
44359;DHT22;30077;52.474;13.326;2023-07-28T21:49:15;19.40;99.90
44359;DHT22;30077;52.474;13.326;2023-07-28T21:54:20;19.40;99.90
44359;DHT22;30077;52.474;13.326;2023-07-28T21:59:22;19.40;99.90
44359;DHT22;30077;52.474;13.326;2023-07-28T22:04:23;19.30;99.90
44359;DHT22;30077;52.474;13.326;2023-07-28T22:09:23;19.30;99.90
44359;DHT22;30077;52.474;13.326;2023-07-28T22:14:24;19.20;99.90
44359;DHT22;30077;52.474;13.326;2023-07-28T22:19:25;19.20;99.90
44359;DHT22;30077;52.474;13.326;2023-07-28T22:24:25;19.20;99.90
44359;DHT22;30077;52.474;13.326;2023-07-28T22:29:26;19.20;99.90
44359;DHT22;30077;52.474;13.326;2023-07-28T22:34:27;19.10;99.90
44359;DHT22;30077;52.474;13.326;2023-07-28T22:39:27;19.00;99.90
44359;DHT22;30077;52.474;13.326;2023-07-28T22:44:28;18.80;99.90
44359;DHT22;30077;52.474;13.326;2023-07-28T22:49:29;18.80;99.90
44359;DHT22;30077;52.474;13.326;2023-07-28T22:54:30;18.70;99.90
44359;DHT22;30077;52.474;13.326;2023-07-28T22:59:31;18.70;99.90
44359;DHT22;30077;52.474;13.326;2023-07-28T23:04:32;18.60;99.90
44359;DHT22;30077;52.474;13.326;2023-07-28T23:09:33;18.60;99.90
44359;DHT22;30077;52.474;13.326;2023-07-28T23:14:33;18.60;99.90
44359;DHT22;30077;52.474;13.326;2023-07-28T23:19:34;18.60;99.90
44359;DHT22;30077;52.474;13.326;2023-07-28T23:24:35;18.50;99.90
44359;DHT22;30077;52.474;13.326;2023-07-28T23:29:35;18.50;99.90
44359;DHT22;30077;52.474;13.326;2023-07-28T23:34:36;18.40;99.90
44359;DHT22;30077;52.474;13.326;2023-07-28T23:39:37;18.40;99.90
44359;DHT22;30077;52.474;13.326;2023-07-28T23:44:38;18.30;99.90
44359;DHT22;30077;52.474;13.326;2023-07-28T23:49:38;18.20;99.90
44359;DHT22;30077;52.474;13.326;2023-07-28T23:54:39;18.30;99.90
44359;DHT22;30077;52.474;13.326;2023-07-28T23:59:40;18.10;99.90
